Time;durP1;ratioP1;P1;durP2;ratioP2;P2;SDS_P1;SDS_P2;PMS_P1;PMS_P2;Temp;Humidity;BMP_temperature;BMP_pressure;BME280_temperature;BME280_humidity;BME280_pressure;Samples;Min_cycle;Max_cycle;Signal;HPM_P1;HPM_P2
2023/07/12 00:01:27;;;;;;;6.20;4.93;;;21.20;99.90;;;;;;4996382;28;20437;-72
2023/07/12 00:03:55;;;;;;;7.03;5.33;;;21.10;99.90;;;;;;4996562;28;20436;-72
2023/07/12 00:06:36;;;;;;;8.03;5.00;;;21.00;99.90;;;;;;4996755;28;20511;-73
2023/07/12 00:09:05;;;;;;;9.00;4.53;;;20.90;99.90;;;;;;4996816;28;20786;-72
2023/07/12 00:11:33;;;;;;;7.97;4.90;;;20.80;99.90;;;;;;4996229;28;20445;-71
2023/07/12 00:14:01;;;;;;;6.60;4.97;;;20.70;99.90;;;;;;4996405;28;20444;-72
2023/07/12 00:16:35;;;;;;;6.53;5.07;;;20.70;99.90;;;;;;4996498;28;20456;-72
2023/07/12 00:19:04;;;;;;;6.27;5.17;;;20.70;99.90;;;;;;4998437;28;20482;-71
2023/07/12 00:21:34;;;;;;;5.53;4.93;;;20.70;99.90;;;;;;4997724;28;20942;-72
2023/07/12 00:24:02;;;;;;;7.07;5.63;;;20.60;99.90;;;;;;4997636;28;20443;-72
2023/07/12 00:26:32;;;;;;;8.20;6.30;;;20.60;99.90;;;;;;4996196;28;20441;-72
2023/07/12 00:29:03;;;;;;;7.53;6.80;;;20.60;99.90;;;;;;4997442;28;20988;-71
2023/07/12 00:31:33;;;;;;;6.40;5.80;;;20.50;99.90;;;;;;4995219;28;20445;-72
2023/07/12 00:34:04;;;;;;;6.43;5.10;;;20.50;99.90;;;;;;4996756;28;20416;-72
2023/07/12 00:36:36;;;;;;;5.40;4.90;;;20.40;99.90;;;;;;4995432;28;20456;-72
2023/07/12 00:39:05;;;;;;;6.50;4.30;;;20.40;99.90;;;;;;4995859;28;20503;-71
2023/07/12 00:41:53;;;;;;;4.80;4.20;;;20.40;99.90;;;;;;4996208;28;20453;-71
2023/07/12 00:44:24;;;;;;;4.53;4.10;;;20.40;99.90;;;;;;4994467;28;20919;-72
2023/07/12 00:46:54;;;;;;;7.47;3.60;;;20.30;99.90;;;;;;4994892;28;20864;-72
2023/07/12 00:49:22;;;;;;;3.90;3.27;;;20.30;99.90;;;;;;4995725;28;20452;-71
2023/07/12 00:51:56;;;;;;;4.00;2.83;;;20.30;99.90;;;;;;4994713;28;20441;-71
2023/07/12 00:54:27;;;;;;;3.17;2.77;;;20.30;99.90;;;;;;4994298;28;20440;-72
2023/07/12 00:56:55;;;;;;;4.53;2.87;;;20.30;99.90;;;;;;4994135;28;20491;-71
2023/07/12 00:59:27;;;;;;;3.00;1.90;;;20.30;99.90;;;;;;4995430;28;20484;-71
2023/07/12 01:01:59;;;;;;;2.80;1.80;;;20.30;99.90;;;;;;4994012;28;20495;-71
2023/07/12 01:04:33;;;;;;;2.93;2.20;;;20.30;99.90;;;;;;4995346;28;20436;-71
2023/07/12 01:07:03;;;;;;;2.00;1.80;;;20.30;99.90;;;;;;4995411;28;20464;-71
2023/07/12 01:09:33;;;;;;;3.13;2.07;;;20.20;99.90;;;;;;4994862;28;20877;-71
2023/07/12 01:12:03;;;;;;;3.67;2.17;;;20.20;99.90;;;;;;4997999;28;20499;-71
2023/07/12 01:14:31;;;;;;;4.23;2.50;;;20.20;99.90;;;;;;4996455;28;20563;-71
2023/07/12 01:17:02;;;;;;;3.33;2.30;;;20.20;99.90;;;;;;4996687;28;20539;-71
2023/07/12 01:19:31;;;;;;;4.80;1.93;;;20.20;99.90;;;;;;4994522;28;20473;-71
2023/07/12 01:22:03;;;;;;;4.53;2.57;;;20.10;99.90;;;;;;4994348;28;20512;-71
2023/07/12 01:24:35;;;;;;;4.47;2.33;;;20.10;99.90;;;;;;4994022;28;20477;-71
2023/07/12 01:27:13;;;;;;;3.33;2.23;;;20.10;99.90;;;;;;4994795;28;21168;-71
2023/07/12 01:29:42;;;;;;;3.10;2.30;;;20.10;99.90;;;;;;4995030;28;20495;-71
2023/07/12 01:32:11;;;;;;;2.40;2.20;;;20.10;99.90;;;;;;4994890;28;20813;-71
2023/07/12 01:34:40;;;;;;;2.40;2.00;;;20.10;99.90;;;;;;4994865;28;20532;-71
2023/07/12 01:37:10;;;;;;;3.43;2.40;;;20.10;99.90;;;;;;4994778;28;20433;-71
2023/07/12 01:39:38;;;;;;;5.27;2.30;;;20.20;99.90;;;;;;4993469;28;20851;-71
2023/07/12 01:42:06;;;;;;;3.07;2.37;;;20.20;99.90;;;;;;4994558;28;20433;-71
2023/07/12 01:44:34;;;;;;;2.87;2.23;;;20.20;99.90;;;;;;4994570;28;20441;-71
2023/07/12 01:47:03;;;;;;;3.30;2.43;;;20.20;99.90;;;;;;4994419;28;20432;-71
2023/07/12 01:49:33;;;;;;;3.07;2.13;;;20.20;99.90;;;;;;4993268;28;20464;-71
2023/07/12 01:52:01;;;;;;;2.80;2.47;;;20.20;99.90;;;;;;4993201;28;20495;-71
2023/07/12 01:54:31;;;;;;;3.17;2.00;;;20.20;99.90;;;;;;4994465;28;20445;-71
2023/07/12 01:56:59;;;;;;;4.80;3.17;;;20.30;99.90;;;;;;4992972;28;20448;-71
2023/07/12 01:59:28;;;;;;;5.00;2.20;;;20.30;99.90;;;;;;4993005;28;20469;-71
2023/07/12 02:01:56;;;;;;;2.97;2.43;;;20.30;99.90;;;;;;4994588;28;21019;-71
2023/07/12 02:04:25;;;;;;;3.33;2.57;;;20.30;99.90;;;;;;4994235;28;20433;-71
2023/07/12 02:06:53;;;;;;;2.90;2.03;;;20.30;99.90;;;;;;4992973;28;20484;-71
2023/07/12 02:09:21;;;;;;;4.30;2.57;;;20.30;99.90;;;;;;4994572;28;21032;-71
2023/07/12 02:11:50;;;;;;;2.53;2.00;;;20.30;99.90;;;;;;4992900;28;20881;-71
2023/07/12 02:14:19;;;;;;;2.60;2.10;;;20.30;99.90;;;;;;4992851;28;20453;-71
2023/07/12 02:16:47;;;;;;;3.13;2.83;;;20.30;99.90;;;;;;4992939;28;20461;-71
2023/07/12 02:19:15;;;;;;;3.00;2.33;;;20.30;99.90;;;;;;4994277;28;20559;-71
2023/07/12 02:21:43;;;;;;;2.80;2.23;;;20.30;99.90;;;;;;4994016;28;20496;-71
2023/07/12 02:24:11;;;;;;;2.73;2.43;;;20.30;99.90;;;;;;4994085;28;20560;-71
2023/07/12 02:26:41;;;;;;;2.70;2.07;;;20.30;99.90;;;;;;4994194;28;20776;-71
2023/07/12 02:29:11;;;;;;;3.03;2.30;;;20.30;99.90;;;;;;4993881;28;20480;-71
2023/07/12 02:31:39;;;;;;;3.03;2.00;;;20.30;99.90;;;;;;4992638;28;20444;-71
2023/07/12 02:34:07;;;;;;;2.80;2.60;;;20.30;99.90;;;;;;4992628;28;20461;-71
2023/07/12 02:36:36;;;;;;;3.70;2.60;;;20.30;99.90;;;;;;4992655;28;20865;-72
2023/07/12 02:39:04;;;;;;;2.80;2.37;;;20.30;99.90;;;;;;4993759;28;20472;-71
2023/07/12 02:41:33;;;;;;;3.30;2.20;;;20.30;99.90;;;;;;4993853;28;20498;-72
2023/07/12 02:44:01;;;;;;;2.57;2.30;;;20.30;99.90;;;;;;4993966;28;20459;-72
2023/07/12 02:46:30;;;;;;;3.30;2.40;;;20.30;99.90;;;;;;4992733;28;20445;-72
2023/07/12 02:48:58;;;;;;;3.30;2.73;;;20.30;99.90;;;;;;4993780;28;20479;-72
2023/07/12 02:51:26;;;;;;;3.57;2.77;;;20.30;99.90;;;;;;4993698;28;20856;-71
2023/07/12 02:53:55;;;;;;;2.63;2.40;;;20.30;99.90;;;;;;4992365;28;20822;-71
2023/07/12 02:56:23;;;;;;;3.70;3.00;;;20.30;99.90;;;;;;4993949;28;21024;-72
2023/07/12 02:58:51;;;;;;;2.57;2.37;;;20.30;99.90;;;;;;4992293;28;20464;-72
2023/07/12 03:01:19;;;;;;;3.20;2.43;;;20.30;99.90;;;;;;4993588;28;20849;-72
2023/07/12 03:03:49;;;;;;;3.80;2.37;;;20.30;99.90;;;;;;4993893;28;20445;-72
2023/07/12 03:06:17;;;;;;;4.57;3.20;;;20.30;99.90;;;;;;4993686;28;20444;-71
2023/07/12 03:08:45;;;;;;;2.70;2.40;;;20.30;99.90;;;;;;4993582;28;20508;-72
2023/07/12 03:11:16;;;;;;;4.00;2.97;;;20.20;99.90;;;;;;4997919;28;20444;-72
2023/07/12 03:13:44;;;;;;;4.03;3.30;;;20.20;99.90;;;;;;4997311;28;20472;-72
2023/07/12 03:16:12;;;;;;;3.23;2.93;;;20.20;99.90;;;;;;4997265;28;20515;-72
2023/07/12 03:18:40;;;;;;;3.23;2.90;;;20.20;99.90;;;;;;4997409;28;20770;-72
2023/07/12 03:21:11;;;;;;;4.30;3.33;;;20.20;99.90;;;;;;4997442;28;20447;-72
2023/07/12 03:23:39;;;;;;;4.50;3.80;;;20.20;99.90;;;;;;4997702;28;20782;-71
2023/07/12 03:26:07;;;;;;;3.93;3.63;;;20.10;99.90;;;;;;4997064;28;20440;-71
2023/07/12 03:28:35;;;;;;;5.07;4.53;;;20.10;99.90;;;;;;4997010;28;20480;-71
2023/07/12 03:31:06;;;;;;;5.83;4.30;;;20.10;99.90;;;;;;4997475;28;20443;-71
2023/07/12 03:33:35;;;;;;;5.23;4.77;;;20.00;99.90;;;;;;4997216;28;20421;-71
2023/07/12 03:36:04;;;;;;;5.43;4.60;;;20.00;99.90;;;;;;4997041;28;20805;-71
2023/07/12 03:38:33;;;;;;;5.10;4.60;;;19.90;99.90;;;;;;4996879;28;20437;-71
2023/07/12 03:41:04;;;;;;;4.67;4.17;;;19.90;99.90;;;;;;4996910;28;20440;-71
2023/07/12 03:43:32;;;;;;;4.37;3.97;;;19.90;99.90;;;;;;4997001;28;20463;-71
2023/07/12 03:46:01;;;;;;;5.10;4.70;;;19.90;99.90;;;;;;4995386;28;20540;-71
2023/07/12 03:48:29;;;;;;;5.77;5.30;;;19.80;99.90;;;;;;4996755;28;20465;-72
2023/07/12 03:50:58;;;;;;;5.30;4.90;;;19.80;99.90;;;;;;4996675;28;20444;-71
2023/07/12 03:53:27;;;;;;;6.10;5.70;;;19.80;99.90;;;;;;4996511;28;20445;-71
2023/07/12 03:56:00;;;;;;;6.50;5.77;;;19.80;99.90;;;;;;4997070;28;20425;-71
2023/07/12 03:58:31;;;;;;;6.87;6.17;;;19.80;99.90;;;;;;4996732;28;20421;-71
2023/07/12 04:01:03;;;;;;;7.13;6.63;;;19.80;99.90;;;;;;4996874;28;20424;-71
2023/07/12 04:03:32;;;;;;;7.30;6.50;;;19.80;99.90;;;;;;4995418;28;20469;-71
2023/07/12 04:06:01;;;;;;;7.30;6.73;;;19.70;99.90;;;;;;4996307;28;20435;-71
2023/07/12 04:08:30;;;;;;;7.87;7.10;;;19.70;99.90;;;;;;4996757;28;20490;-71
2023/07/12 04:11:00;;;;;;;6.33;5.87;;;19.70;99.90;;;;;;4996440;28;20508;-71
2023/07/12 04:13:28;;;;;;;6.53;5.93;;;19.70;99.90;;;;;;4996576;28;20753;-71
2023/07/12 04:15:59;;;;;;;6.87;6.17;;;19.60;99.90;;;;;;4996238;28;20484;-71
2023/07/12 04:18:27;;;;;;;7.03;6.30;;;19.60;99.90;;;;;;4996248;28;20432;-71
2023/07/12 04:20:58;;;;;;;6.03;5.60;;;19.60;99.90;;;;;;4996529;28;20445;-71
2023/07/12 04:23:27;;;;;;;5.43;4.93;;;19.60;99.90;;;;;;4994848;28;20508;-71
2023/07/12 04:26:01;;;;;;;5.70;5.30;;;19.60;99.90;;;;;;4996035;28;20800;-71
2023/07/12 04:28:30;;;;;;;6.67;6.07;;;19.50;99.90;;;;;;5001281;28;20489;-71
2023/07/12 04:31:06;;;;;;;5.67;5.17;;;19.50;99.90;;;;;;4999042;28;20476;-71
2023/07/12 04:33:35;;;;;;;6.27;5.70;;;19.50;99.90;;;;;;4997078;28;20443;-71
2023/07/12 04:36:07;;;;;;;7.03;6.33;;;19.50;99.90;;;;;;4996602;28;20468;-71
2023/07/12 04:38:36;;;;;;;8.20;7.50;;;19.40;99.90;;;;;;4995102;28;20448;-71
2023/07/12 04:41:06;;;;;;;7.40;6.80;;;19.40;99.90;;;;;;4995893;28;20440;-71
2023/07/12 04:43:35;;;;;;;7.57;6.97;;;19.40;99.90;;;;;;4994956;28;20457;-71
2023/07/12 04:46:04;;;;;;;8.13;7.30;;;19.40;99.90;;;;;;4995986;28;20550;-71
2023/07/12 04:48:33;;;;;;;8.27;7.47;;;19.30;99.90;;;;;;4995891;28;20445;-71
2023/07/12 04:51:03;;;;;;;7.53;6.93;;;19.30;99.90;;;;;;4995616;28;20464;-71
2023/07/12 04:53:32;;;;;;;7.50;6.80;;;19.30;99.90;;;;;;4995838;28;20428;-71
2023/07/12 04:56:01;;;;;;;8.10;7.40;;;19.30;99.90;;;;;;4995398;28;20883;-71
2023/07/12 04:58:30;;;;;;;7.63;6.20;;;19.30;99.90;;;;;;4995429;28;20550;-71
2023/07/12 05:00:59;;;;;;;7.07;6.57;;;19.20;99.90;;;;;;4995429;28;20436;-72
2023/07/12 05:03:28;;;;;;;6.50;6.00;;;19.20;99.90;;;;;;4995405;28;20436;-71
2023/07/12 05:05:58;;;;;;;6.40;5.90;;;19.20;99.90;;;;;;4995505;28;20436;-71
2023/07/12 05:08:40;;;;;;;6.50;5.93;;;19.20;99.90;;;;;;4995688;28;20764;-71
2023/07/12 05:11:08;;;;;;;6.57;6.00;;;19.20;99.90;;;;;;4995125;28;20499;-71
2023/07/12 05:13:38;;;;;;;5.80;5.30;;;19.20;99.90;;;;;;4995140;28;20491;-71
2023/07/12 05:16:06;;;;;;;6.00;5.60;;;19.20;99.90;;;;;;4993652;28;20448;-71
2023/07/12 05:18:35;;;;;;;5.90;5.40;;;19.20;99.90;;;;;;4994945;28;20472;-71
2023/07/12 05:21:03;;;;;;;6.50;5.47;;;19.20;99.90;;;;;;4994952;28;20483;-71
2023/07/12 05:23:31;;;;;;;6.97;6.37;;;19.20;99.90;;;;;;4995029;28;20441;-71
2023/07/12 05:25:59;;;;;;;8.33;5.57;;;19.20;99.90;;;;;;4995372;28;20881;-71
2023/07/12 05:28:27;;;;;;;7.30;6.07;;;19.20;99.90;;;;;;4994848;28;20528;-71
2023/07/12 05:30:57;;;;;;;5.40;4.90;;;19.20;99.90;;;;;;4994877;28;20472;-71
2023/07/12 05:33:25;;;;;;;5.43;4.93;;;19.20;99.90;;;;;;4994268;28;20496;-71
2023/07/12 05:35:53;;;;;;;6.37;5.77;;;19.20;99.90;;;;;;4994729;28;20444;-71
2023/07/12 05:38:21;;;;;;;6.47;5.90;;;19.20;99.90;;;;;;4994705;28;20433;-71
2023/07/12 05:40:50;;;;;;;6.50;6.00;;;19.20;99.90;;;;;;4994541;28;20457;-71
2023/07/12 05:43:23;;;;;;;6.70;6.20;;;19.20;99.90;;;;;;4994654;28;20491;-71
2023/07/12 05:45:57;;;;;;;7.43;6.83;;;19.20;99.90;;;;;;4994777;28;20436;-71
2023/07/12 05:48:26;;;;;;;6.90;6.40;;;19.20;99.90;;;;;;4994587;28;20440;-71
2023/07/12 05:50:55;;;;;;;7.87;7.27;;;19.20;99.90;;;;;;4994345;28;20523;-71
2023/07/12 05:53:23;;;;;;;7.83;7.00;;;19.20;99.90;;;;;;4994490;28;20520;-71
2023/07/12 05:55:55;;;;;;;7.03;6.40;;;19.20;99.90;;;;;;4995257;28;20456;-71
2023/07/12 05:58:24;;;;;;;7.53;6.97;;;19.20;99.90;;;;;;4994719;28;20417;-71
2023/07/12 06:00:58;;;;;;;7.33;6.53;;;19.20;99.90;;;;;;4994328;28;20465;-71
2023/07/12 06:03:27;;;;;;;8.20;7.40;;;19.20;99.90;;;;;;4994276;28;20412;-71
2023/07/12 06:05:55;;;;;;;9.00;6.67;;;19.20;99.90;;;;;;4994234;28;20441;-71
2023/07/12 06:08:24;;;;;;;9.93;7.17;;;19.20;99.90;;;;;;4994177;28;20448;-71
2023/07/12 06:10:53;;;;;;;6.60;5.77;;;19.20;99.90;;;;;;4994081;28;20472;-72
2023/07/12 06:13:21;;;;;;;6.80;6.20;;;19.20;99.90;;;;;;4994646;28;20520;-72
2023/07/12 06:15:49;;;;;;;6.27;5.70;;;19.10;99.90;;;;;;4993960;28;20480;-72
2023/07/12 06:18:19;;;;;;;5.73;5.23;;;19.10;99.90;;;;;;4994402;28;20891;-72
2023/07/12 06:20:51;;;;;;;6.00;5.50;;;19.10;99.90;;;;;;4993962;28;20830;-71
2023/07/12 06:23:19;;;;;;;5.50;5.00;;;19.00;99.90;;;;;;4994279;28;20784;-71
2023/07/12 06:25:47;;;;;;;5.53;4.87;;;19.00;99.90;;;;;;4993941;28;20499;-72
2023/07/12 06:28:15;;;;;;;6.13;5.60;;;19.00;99.90;;;;;;4993911;28;20447;-71
2023/07/12 06:30:43;;;;;;;5.97;5.13;;;19.00;99.90;;;;;;4993804;28;20473;-71
2023/07/12 06:33:12;;;;;;;5.80;5.20;;;19.10;99.90;;;;;;4994174;28;20436;-72
2023/07/12 06:35:41;;;;;;;6.60;4.97;;;19.20;99.90;;;;;;4992587;28;20448;-72
2023/07/12 06:38:10;;;;;;;8.37;5.30;;;19.30;99.90;;;;;;4993812;28;20531;-71
2023/07/12 06:40:39;;;;;;;5.00;4.47;;;19.30;99.90;;;;;;4994294;28;20807;-72
2023/07/12 06:43:07;;;;;;;7.87;5.37;;;19.30;99.90;;;;;;4994045;28;20440;-72
2023/07/12 06:45:35;;;;;;;6.07;5.53;;;19.30;99.90;;;;;;4996812;28;20444;-72
2023/07/12 06:48:03;;;;;;;7.87;5.60;;;19.30;99.90;;;;;;4997735;28;21037;-73
2023/07/12 06:50:32;;;;;;;9.80;5.60;;;19.30;99.90;;;;;;5001458;28;20469;-72
2023/07/12 06:53:06;;;;;;;6.33;5.10;;;19.40;99.90;;;;;;5004425;28;20440;-72
2023/07/12 06:55:36;;;;;;;6.30;5.03;;;19.40;99.90;;;;;;5004327;28;20436;-71
2023/07/12 06:58:04;;;;;;;6.03;4.77;;;19.50;99.90;;;;;;5008279;28;20531;-72
2023/07/12 07:00:33;;;;;;;12.57;5.57;;;19.60;99.90;;;;;;5006322;28;20456;-72
2023/07/12 07:03:04;;;;;;;7.03;4.37;;;19.80;99.90;;;;;;5006079;28;20448;-71
2023/07/12 07:05:33;;;;;;;5.87;4.60;;;19.80;99.90;;;;;;5002136;28;20425;-71
2023/07/12 07:08:04;;;;;;;5.73;4.57;;;19.90;99.90;;;;;;5004797;28;20513;-71
2023/07/12 07:10:33;;;;;;;4.60;4.20;;;20.10;99.90;;;;;;5003447;28;20468;-72
2023/07/12 07:13:02;;;;;;;5.63;5.10;;;20.20;99.90;;;;;;4998512;28;20448;-72
2023/07/12 07:15:30;;;;;;;5.40;4.33;;;20.20;99.90;;;;;;4997507;28;20484;-72
2023/07/12 07:18:09;;;;;;;7.53;4.80;;;20.30;99.90;;;;;;5003271;28;20435;-71
2023/07/12 07:20:59;;;;;;;5.27;4.20;;;20.30;99.90;;;;;;5016968;28;20634;-72
2023/07/12 07:23:45;;;;;;;5.23;4.10;;;20.50;99.90;;;;;;5016170;28;20427;-71
2023/07/12 07:26:34;;;;;;;6.80;5.03;;;20.40;99.90;;;;;;5015692;28;20439;-72
2023/07/12 07:29:09;;;;;;;4.83;4.33;;;20.50;99.90;;;;;;5010854;28;20452;-72
2023/07/12 07:31:37;;;;;;;5.53;4.60;;;20.50;99.90;;;;;;5001504;28;20890;-71
2023/07/12 07:34:07;;;;;;;8.10;5.03;;;20.50;99.90;;;;;;5006499;28;20869;-72
2023/07/12 07:36:41;;;;;;;6.60;5.20;;;20.40;99.90;;;;;;5009177;28;20939;-73
2023/07/12 07:39:12;;;;;;;8.13;5.30;;;20.30;99.90;;;;;;5009437;28;20519;-72
2023/07/12 07:41:41;;;;;;;5.40;4.90;;;20.30;99.90;;;;;;5012460;28;20511;-74
2023/07/12 07:44:10;;;;;;;9.03;5.40;;;20.20;99.90;;;;;;5002658;28;20443;-72
2023/07/12 07:46:41;;;;;;;6.57;5.60;;;20.10;99.90;;;;;;5000729;28;20440;-72
2023/07/12 07:49:12;;;;;;;7.50;5.40;;;20.00;99.90;;;;;;5006086;28;20455;-71
2023/07/12 07:51:42;;;;;;;7.57;5.20;;;20.00;99.90;;;;;;5001727;28;20464;-73
2023/07/12 07:54:15;;;;;;;6.47;5.53;;;20.00;99.90;;;;;;5010891;28;20449;-73
2023/07/12 07:56:49;;;;;;;5.70;5.20;;;20.00;99.90;;;;;;5011125;28;20431;-72
2023/07/12 07:59:18;;;;;;;5.30;4.57;;;20.00;99.90;;;;;;4999657;28;20488;-72
2023/07/12 08:01:47;;;;;;;6.20;4.83;;;20.00;99.90;;;;;;5000598;28;20449;-72
2023/07/12 08:04:15;;;;;;;6.40;5.00;;;20.10;99.90;;;;;;4998534;28;20441;-72
2023/07/12 08:06:44;;;;;;;6.93;5.50;;;20.20;99.90;;;;;;4999175;28;20448;-72
2023/07/12 08:09:15;;;;;;;8.90;5.20;;;20.20;99.90;;;;;;5000667;28;20927;-72
2023/07/12 08:11:44;;;;;;;7.10;5.03;;;20.30;99.90;;;;;;5000827;28;20452;-72
2023/07/12 08:14:25;;;;;;;7.17;5.13;;;20.40;99.90;;;;;;5012481;28;20433;-72
2023/07/12 08:16:57;;;;;;;8.63;5.73;;;20.40;99.90;;;;;;4958003;28;1381883;-73
2023/07/12 08:19:26;;;;;;;7.97;7.03;;;20.40;99.90;;;;;;5005750;28;20213;-72
2023/07/12 08:21:55;;;;;;;7.53;4.97;;;20.50;99.90;;;;;;5001473;28;20467;-72
2023/07/12 08:24:25;;;;;;;7.43;5.43;;;20.60;99.90;;;;;;4999585;28;20444;-71
2023/07/12 08:26:54;;;;;;;7.13;4.97;;;20.60;99.90;;;;;;4998351;28;20945;-72
2023/07/12 08:29:36;;;;;;;6.07;4.67;;;20.70;99.90;;;;;;4998448;28;20996;-72
2023/07/12 08:32:05;;;;;;;6.70;5.37;;;20.80;99.90;;;;;;4998587;28;20468;-72
2023/07/12 08:34:34;;;;;;;8.60;5.20;;;20.90;99.90;;;;;;4997379;28;20417;-73
2023/07/12 08:37:02;;;;;;;5.50;5.00;;;20.90;99.90;;;;;;4997901;28;20536;-72
2023/07/12 08:39:32;;;;;;;11.37;5.87;;;20.90;99.90;;;;;;4997849;28;20492;-73
2023/07/12 08:42:00;;;;;;;8.83;5.30;;;21.00;99.90;;;;;;4996473;28;20493;-71
2023/07/12 08:44:32;;;;;;;6.77;5.70;;;21.10;99.90;;;;;;4998284;28;20444;-71
2023/07/12 08:47:01;;;;;;;6.40;4.80;;;21.10;99.90;;;;;;4994500;28;20481;-72
2023/07/12 08:49:29;;;;;;;6.73;5.67;;;21.10;99.90;;;;;;4995781;28;20503;-71
2023/07/12 08:52:04;;;;;;;7.30;4.67;;;21.10;99.90;;;;;;4995912;28;20911;-71
2023/07/12 08:54:34;;;;;;;8.60;5.50;;;21.10;99.90;;;;;;4994439;28;20448;-72
2023/07/12 08:57:15;;;;;;;9.23;5.53;;;21.10;99.90;;;;;;4995666;28;20795;-72
2023/07/12 08:59:45;;;;;;;7.20;5.20;;;21.10;99.90;;;;;;4995670;28;21039;-72
2023/07/12 09:02:21;;;;;;;6.80;5.63;;;21.10;99.90;;;;;;4995677;28;20460;-71
2023/07/12 09:04:49;;;;;;;6.03;4.40;;;21.20;99.90;;;;;;4995891;28;20968;-72
2023/07/12 09:07:28;;;;;;;6.57;4.97;;;21.20;99.90;;;;;;4994708;28;20475;-71
2023/07/12 09:09:59;;;;;;;6.87;5.57;;;21.30;99.90;;;;;;4996132;28;20460;-71
2023/07/12 09:12:31;;;;;;;7.70;6.13;;;21.40;99.90;;;;;;4997188;28;20491;-72
2023/07/12 09:15:01;;;;;;;6.63;5.20;;;21.40;99.90;;;;;;4999235;28;20409;-72
2023/07/12 09:17:34;;;;;;;10.70;5.50;;;21.40;99.90;;;;;;4996541;28;20448;-72
2023/07/12 09:20:21;;;;;;;6.20;5.50;;;21.40;99.90;;;;;;4995864;28;20548;-71
2023/07/12 09:22:50;;;;;;;7.53;5.43;;;21.40;99.90;;;;;;4996033;28;20431;-72
2023/07/12 09:25:23;;;;;;;6.67;5.10;;;21.40;99.90;;;;;;4995333;28;20847;-72
2023/07/12 09:27:52;;;;;;;7.37;5.90;;;21.50;99.90;;;;;;4996773;28;20424;-72
2023/07/12 09:30:22;;;;;;;7.13;5.27;;;21.60;99.90;;;;;;4996182;28;20461;-72
2023/07/12 09:32:53;;;;;;;6.60;4.97;;;21.60;99.90;;;;;;4996651;28;20543;-72
2023/07/12 09:35:28;;;;;;;8.00;4.90;;;21.60;99.90;;;;;;4996391;28;20528;-72
2023/07/12 09:37:58;;;;;;;6.67;5.10;;;21.60;99.90;;;;;;4996654;28;20512;-72
2023/07/12 09:40:37;;;;;;;5.70;5.20;;;21.60;99.90;;;;;;4996035;28;20799;-72
2023/07/12 09:43:16;;;;;;;7.60;5.03;;;21.60;99.90;;;;;;4995702;28;20831;-72
2023/07/12 09:45:53;;;;;;;5.80;4.37;;;21.70;99.90;;;;;;4995893;28;20425;-72
2023/07/12 09:48:44;;;;;;;6.03;4.10;;;21.70;99.90;;;;;;4996092;28;20426;-73
2023/07/12 09:51:36;;;;;;;5.80;4.87;;;21.80;99.90;;;;;;4995585;28;20487;-72
2023/07/12 09:54:29;;;;;;;5.30;4.80;;;21.90;99.90;;;;;;4995854;28;20425;-72
2023/07/12 09:57:03;;;;;;;5.23;4.53;;;21.90;99.90;;;;;;4995952;28;20421;-73
2023/07/12 09:59:45;;;;;;;31.93;7.30;;;21.90;99.90;;;;;;4995554;28;20460;-72
2023/07/12 10:02:23;;;;;;;6.80;5.17;;;22.00;99.90;;;;;;4996057;28;20464;-72
2023/07/12 10:04:55;;;;;;;6.33;5.10;;;22.10;99.90;;;;;;4995865;28;20832;-72
2023/07/12 10:07:45;;;;;;;5.00;4.50;;;22.10;99.90;;;;;;4995207;28;20479;-72
2023/07/12 10:10:22;;;;;;;8.03;4.47;;;22.20;99.90;;;;;;4995347;28;20520;-72
2023/07/12 10:12:59;;;;;;;5.17;4.30;;;22.30;99.90;;;;;;4995615;28;20467;-72
2023/07/12 10:15:30;;;;;;;4.90;4.30;;;22.30;99.90;;;;;;4995168;28;20540;-72
2023/07/12 10:17:58;;;;;;;5.00;3.90;;;22.40;99.90;;;;;;4995006;28;20448;-72
2023/07/12 10:20:27;;;;;;;4.70;4.20;;;22.40;99.90;;;;;;4995477;28;20571;-72
2023/07/12 10:22:56;;;;;;;4.30;3.77;;;22.50;99.90;;;;;;4995294;28;20479;-72
2023/07/12 10:25:30;;;;;;;6.20;4.13;;;22.50;99.90;;;;;;4995447;28;20516;-72
2023/07/12 10:28:05;;;;;;;5.60;3.87;;;22.50;99.90;;;;;;4995274;28;20891;-72
2023/07/12 10:30:35;;;;;;;5.40;4.80;;;22.40;99.90;;;;;;4995024;28;20551;-72
2023/07/12 10:33:14;;;;;;;4.80;4.30;;;22.40;99.90;;;;;;4995125;28;20518;-72
2023/07/12 10:35:47;;;;;;;6.30;5.00;;;22.50;99.90;;;;;;4995481;28;20940;-72
2023/07/12 10:38:17;;;;;;;5.10;4.30;;;22.50;99.90;;;;;;4995805;28;20421;-72
2023/07/12 10:40:51;;;;;;;5.83;4.33;;;22.50;99.90;;;;;;4994082;28;20865;-72
2023/07/12 10:43:27;;;;;;;6.20;4.57;;;22.60;99.90;;;;;;4995288;28;20421;-73
2023/07/12 10:46:02;;;;;;;5.20;4.70;;;22.60;99.90;;;;;;4995682;28;20834;-73
2023/07/12 10:48:30;;;;;;;6.10;3.73;;;22.80;99.90;;;;;;4995307;28;20428;-73
2023/07/12 10:51:18;;;;;;;5.23;3.63;;;22.80;99.90;;;;;;4992517;28;20449;-73
2023/07/12 10:53:51;;;;;;;8.27;5.07;;;22.80;99.90;;;;;;4993969;28;21000;-73
2023/07/12 10:56:26;;;;;;;6.50;4.50;;;22.90;99.90;;;;;;4993729;28;20456;-73
2023/07/12 10:58:59;;;;;;;6.87;5.43;;;22.90;99.90;;;;;;4993732;28;21025;-72
2023/07/12 11:01:53;;;;;;;5.43;4.53;;;23.00;99.90;;;;;;4994011;28;20479;-72
2023/07/12 11:04:33;;;;;;;6.40;5.00;;;23.10;99.90;;;;;;4992391;28;20460;-73
2023/07/12 11:07:44;;;;;;;5.50;4.57;;;23.10;99.90;;;;;;4994291;28;20457;-73
2023/07/12 11:10:24;;;;;;;6.00;4.57;;;23.10;99.90;;;;;;4993569;28;20511;-73
2023/07/12 11:13:03;;;;;;;8.10;4.63;;;23.20;99.90;;;;;;4994028;28;20456;-73
2023/07/12 11:15:50;;;;;;;8.50;5.27;;;23.20;99.90;;;;;;4992406;28;20960;-73
2023/07/12 11:18:29;;;;;;;5.20;4.63;;;23.30;99.90;;;;;;4993827;28;20425;-72
2023/07/12 11:21:01;;;;;;;9.60;4.63;;;23.20;99.90;;;;;;4994062;28;20432;-73
2023/07/12 11:23:32;;;;;;;8.80;5.00;;;23.30;99.90;;;;;;4992240;28;20441;-72
2023/07/12 11:26:05;;;;;;;5.00;4.50;;;23.30;99.90;;;;;;4992228;28;20476;-72
2023/07/12 11:28:42;;;;;;;4.97;4.30;;;23.30;99.90;;;;;;4992170;28;20861;-72
2023/07/12 11:31:26;;;;;;;6.40;4.67;;;23.30;99.90;;;;;;4994562;28;20448;-73
2023/07/12 11:34:02;;;;;;;7.73;5.27;;;23.30;99.90;;;;;;4997186;28;20976;-72
2023/07/12 11:36:33;;;;;;;6.80;5.00;;;23.30;99.90;;;;;;4997613;28;20420;-73
2023/07/12 11:39:04;;;;;;;6.63;4.37;;;23.30;99.90;;;;;;4997348;28;20830;-73
2023/07/12 11:41:33;;;;;;;5.60;4.37;;;23.30;99.90;;;;;;4995825;28;20822;-72
2023/07/12 11:44:04;;;;;;;7.03;4.03;;;23.30;99.90;;;;;;4997430;28;20523;-72
2023/07/12 11:46:35;;;;;;;5.80;4.33;;;23.30;99.90;;;;;;4996794;28;20425;-72
2023/07/12 11:49:14;;;;;;;4.60;4.20;;;23.40;99.90;;;;;;4996811;28;20845;-73
2023/07/12 11:51:44;;;;;;;8.50;5.00;;;23.40;99.90;;;;;;4995759;28;20782;-73
2023/07/12 11:54:19;;;;;;;5.97;4.60;;;23.40;99.90;;;;;;4995347;28;20549;-73
2023/07/12 11:56:49;;;;;;;8.00;4.43;;;23.40;99.90;;;;;;4996966;28;20427;-72
2023/07/12 11:59:21;;;;;;;6.30;5.27;;;23.40;99.90;;;;;;4995321;28;20469;-73
2023/07/12 12:01:52;;;;;;;6.03;4.77;;;23.40;99.90;;;;;;4996757;28;20427;-73
2023/07/12 12:04:28;;;;;;;7.27;4.63;;;23.40;99.90;;;;;;4996926;28;20801;-72
2023/07/12 12:06:59;;;;;;;5.23;4.57;;;23.40;99.90;;;;;;4997384;28;20417;-73
2023/07/12 12:09:31;;;;;;;7.90;4.67;;;23.50;99.90;;;;;;4997144;28;21057;-73
2023/07/12 12:12:00;;;;;;;5.47;4.20;;;23.50;99.90;;;;;;4997300;28;20417;-72
2023/07/12 12:14:32;;;;;;;6.13;4.30;;;23.60;99.90;;;;;;4997181;28;20468;-73
2023/07/12 12:17:06;;;;;;;5.10;3.83;;;23.60;99.90;;;;;;4996197;28;20485;-73
2023/07/12 12:19:34;;;;;;;6.93;4.50;;;23.60;99.90;;;;;;4996605;28;20464;-73
2023/07/12 12:22:06;;;;;;;6.80;4.47;;;23.60;99.90;;;;;;4997492;28;20440;-73
2023/07/12 12:24:47;;;;;;;6.17;4.20;;;23.60;99.90;;;;;;4997340;28;20452;-73
2023/07/12 12:27:18;;;;;;;4.63;3.97;;;23.70;99.90;;;;;;5000405;28;20571;-72
2023/07/12 12:29:49;;;;;;;6.57;4.30;;;23.70;99.90;;;;;;4999823;28;20461;-73
2023/07/12 12:32:22;;;;;;;5.60;4.07;;;23.70;99.90;;;;;;4998471;28;20448;-72
2023/07/12 12:34:53;;;;;;;6.13;4.10;;;23.70;99.90;;;;;;4997473;28;21006;-73
2023/07/12 12:37:25;;;;;;;4.43;3.60;;;23.70;99.90;;;;;;4996814;28;20476;-72
2023/07/12 12:39:57;;;;;;;5.33;3.87;;;23.60;99.90;;;;;;4996359;28;20465;-73
2023/07/12 12:42:27;;;;;;;7.27;4.40;;;23.50;99.90;;;;;;4993859;28;20433;-72
2023/07/12 12:44:55;;;;;;;8.57;5.23;;;23.40;99.90;;;;;;4996264;28;20444;-73
2023/07/12 12:47:28;;;;;;;4.80;4.20;;;23.30;99.90;;;;;;4996025;28;20440;-73
2023/07/12 12:49:58;;;;;;;7.30;4.20;;;23.20;99.90;;;;;;4996075;28;20496;-73
2023/07/12 12:52:32;;;;;;;4.87;4.40;;;23.10;99.90;;;;;;4996264;28;20432;-73
2023/07/12 12:55:20;;;;;;;5.30;4.30;;;23.00;99.90;;;;;;4996277;28;20432;-73
2023/07/12 12:58:11;;;;;;;5.50;4.60;;;22.90;99.90;;;;;;4996393;28;20437;-73
2023/07/12 13:00:54;;;;;;;4.97;4.10;;;22.80;99.90;;;;;;4995872;28;20492;-73
2023/07/12 13:03:27;;;;;;;4.13;3.73;;;22.70;99.90;;;;;;4995853;28;20416;-73
2023/07/12 13:06:19;;;;;;;4.57;4.17;;;22.50;99.90;;;;;;4995955;28;20496;-73
2023/07/12 13:08:48;;;;;;;5.27;3.90;;;22.50;99.90;;;;;;4995614;28;20457;-72